createdAt,value
2022-10-17T00:00:41.684Z,9.13
2022-10-17T00:03:04.189Z,9.07
2022-10-17T00:05:26.235Z,9.43
2022-10-17T00:07:48.163Z,8.57
2022-10-17T00:10:09.981Z,9.00
2022-10-17T00:12:31.820Z,8.87
2022-10-17T00:14:53.576Z,9.10
2022-10-17T00:17:15.749Z,8.43
2022-10-17T00:19:37.625Z,8.77
2022-10-17T00:21:59.374Z,9.13
2022-10-17T00:24:21.194Z,9.27
2022-10-17T00:26:42.932Z,9.10
2022-10-17T00:29:04.819Z,9.13
2022-10-17T00:31:27.163Z,9.10
2022-10-17T00:33:49.090Z,8.97
2022-10-17T00:36:22.814Z,8.93
2022-10-17T00:38:47.913Z,8.83
2022-10-17T00:41:13.648Z,9.13
2022-10-17T00:43:56.594Z,9.63
2022-10-17T00:46:19.423Z,8.80
2022-10-17T00:48:43.279Z,9.03
2022-10-17T00:51:06.205Z,9.02
2022-10-17T00:53:28.831Z,10.10
2022-10-17T00:55:54.037Z,10.40
2022-10-17T00:58:18.046Z,8.90
2022-10-17T01:00:41.506Z,9.73
2022-10-17T01:03:03.909Z,9.20
2022-10-17T01:05:26.186Z,9.57
2022-10-17T01:07:52.243Z,9.10
2022-10-17T01:10:15.585Z,9.20
2022-10-17T01:12:55.698Z,9.97
2022-10-17T01:15:37.794Z,9.67
2022-10-17T01:18:14.217Z,9.30
2022-10-17T01:21:16.448Z,9.67
2022-10-17T01:24:35.254Z,9.30
2022-10-17T01:27:46.358Z,10.00
2022-10-17T01:30:35.376Z,9.37
2022-10-17T01:33:28.754Z,9.60
2022-10-17T01:36:14.633Z,9.63
2022-10-17T01:38:53.507Z,9.67
2022-10-17T01:41:47.884Z,10.17
2022-10-17T01:44:19.405Z,10.17
2022-10-17T01:46:50.686Z,9.80
2022-10-17T01:49:18.634Z,9.60
2022-10-17T01:51:57.060Z,10.30
2022-10-17T01:54:32.447Z,10.23
2022-10-17T01:57:05.226Z,10.13
2022-10-17T01:59:42.592Z,10.60
2022-10-17T02:02:06.962Z,10.07
2022-10-17T02:04:29.900Z,9.17
2022-10-17T02:06:51.695Z,10.23
2022-10-17T02:09:26.703Z,10.10
2022-10-17T02:15:08.519Z,9.90
2022-10-17T02:17:45.194Z,10.03
2022-10-17T02:20:32.207Z,9.83
2022-10-17T02:23:08.912Z,9.40
2022-10-17T02:25:42.716Z,10.47
2022-10-17T02:28:40.658Z,10.73
2022-10-17T02:31:32.409Z,10.20
2022-10-17T02:34:04.914Z,9.63
2022-10-17T02:36:36.571Z,9.73
2022-10-17T02:39:03.139Z,10.47
2022-10-17T02:41:26.212Z,9.83
2022-10-17T02:43:51.199Z,10.17
2022-10-17T02:46:21.873Z,10.67
2022-10-17T02:48:54.564Z,9.90
2022-10-17T02:51:27.517Z,10.47
2022-10-17T02:54:12.829Z,10.40
2022-10-17T02:59:09.563Z,10.03
2022-10-17T03:01:31.598Z,10.30
2022-10-17T03:04:13.210Z,10.37
2022-10-17T03:06:38.150Z,10.20
2022-10-17T03:08:59.979Z,10.07
2022-10-17T03:11:22.655Z,11.03
2022-10-17T03:13:45.390Z,10.40
2022-10-17T03:16:07.474Z,10.40
2022-10-17T03:18:29.291Z,10.87
2022-10-17T03:20:54.957Z,10.23
2022-10-17T03:23:16.741Z,10.13
2022-10-17T03:25:38.624Z,10.13
2022-10-17T03:28:01.610Z,10.73
2022-10-17T03:30:23.431Z,10.27
2022-10-17T03:32:46.512Z,10.87
2022-10-17T03:35:12.591Z,9.77
2022-10-17T03:37:36.999Z,10.60
2022-10-17T03:39:59.534Z,10.63
2022-10-17T03:42:21.391Z,10.60
2022-10-17T03:44:43.743Z,10.77
2022-10-17T03:47:08.155Z,10.43
2022-10-17T03:49:32.291Z,11.00
2022-10-17T03:51:54.112Z,10.60
2022-10-17T03:54:15.978Z,10.67
2022-10-17T03:56:38.083Z,11.10
2022-10-17T03:59:05.100Z,10.53
2022-10-17T04:01:29.976Z,10.40
2022-10-17T04:03:55.692Z,10.07
2022-10-17T04:06:18.223Z,10.93
2022-10-17T04:08:40.564Z,10.33
2022-10-17T04:11:09.457Z,10.23
2022-10-17T04:13:32.383Z,10.77
2022-10-17T04:16:01.344Z,10.80
2022-10-17T04:18:24.135Z,10.43
2022-10-17T04:20:45.908Z,10.27
2022-10-17T04:23:08.053Z,10.87
2022-10-17T04:25:33.428Z,10.07
2022-10-17T04:27:58.414Z,9.47
2022-10-17T04:30:20.711Z,11.20
2022-10-17T04:32:42.851Z,9.97
2022-10-17T04:35:09.515Z,11.37
2022-10-17T04:37:32.492Z,10.40
2022-10-17T04:39:57.417Z,10.37
2022-10-17T04:42:19.432Z,10.27
2022-10-17T04:44:42.058Z,10.37
2022-10-17T04:47:04.691Z,10.10
2022-10-17T04:49:26.463Z,10.60
2022-10-17T04:51:52.847Z,9.90
2022-10-17T04:54:21.063Z,10.07
2022-10-17T04:56:48.623Z,9.30
2022-10-17T04:59:10.763Z,10.23
2022-10-17T05:01:34.625Z,9.40
2022-10-17T05:03:56.600Z,9.80
2022-10-17T05:06:28.363Z,9.67
2022-10-17T05:09:19.405Z,9.40
2022-10-17T05:11:43.251Z,9.80
2022-10-17T05:14:06.179Z,9.07
2022-10-17T05:16:29.711Z,9.27
2022-10-17T05:18:55.996Z,8.97
2022-10-17T05:21:19.188Z,8.70
2022-10-17T05:23:41.999Z,9.23
2022-10-17T05:26:03.943Z,9.27
2022-10-17T05:28:26.611Z,8.67
2022-10-17T05:30:52.108Z,9.37
2022-10-17T05:33:14.294Z,9.10
2022-10-17T05:35:36.636Z,8.40
2022-10-17T05:37:59.246Z,8.43
2022-10-17T05:40:21.106Z,8.50
2022-10-17T05:42:49.504Z,8.87
2022-10-17T05:45:14.324Z,8.50
2022-10-17T05:47:36.378Z,8.90
2022-10-17T05:49:58.763Z,8.73
2022-10-17T05:52:27.619Z,8.20
2022-10-17T05:55:03.702Z,8.47
2022-10-17T05:57:27.074Z,8.57
2022-10-17T05:59:49.373Z,8.83
2022-10-17T06:02:14.644Z,8.67
2022-10-17T06:04:37.977Z,8.07
2022-10-17T06:06:59.782Z,8.63
2022-10-17T06:09:24.018Z,8.90
2022-10-17T06:11:48.431Z,8.40
2022-10-17T06:14:10.839Z,8.33
2022-10-17T06:16:34.759Z,8.07
2022-10-17T06:18:56.778Z,8.00
2022-10-17T06:21:25.763Z,8.17
2022-10-17T06:23:53.522Z,8.38
2022-10-17T06:26:22.007Z,8.03
2022-10-17T06:28:44.031Z,8.13
2022-10-17T06:31:08.858Z,8.13
2022-10-17T06:33:31.102Z,8.23
2022-10-17T06:35:57.051Z,8.40
2022-10-17T06:38:21.039Z,7.47
2022-10-17T06:40:45.245Z,8.20
2022-10-17T06:43:07.462Z,7.80
2022-10-17T06:48:33.197Z,7.90
2022-10-17T06:51:32.181Z,8.67
2022-10-17T06:53:54.419Z,8.32
2022-10-17T06:56:39.201Z,7.68
2022-10-17T06:59:16.676Z,8.27
2022-10-17T07:01:47.230Z,8.37
2022-10-17T07:04:10.709Z,8.60
2022-10-17T07:06:34.175Z,8.27
2022-10-17T07:09:02.906Z,8.07
2022-10-17T07:11:26.024Z,8.50
2022-10-17T07:13:48.946Z,8.00
2022-10-17T07:16:12.416Z,8.27
2022-10-17T07:18:36.567Z,8.87
2022-10-17T07:20:58.694Z,8.63
2022-10-17T07:23:22.532Z,8.33
2022-10-17T07:25:44.918Z,9.03
2022-10-17T07:28:07.276Z,8.43
2022-10-17T07:30:29.268Z,8.90
2022-10-17T07:32:58.729Z,8.87
2022-10-17T07:35:21.663Z,9.13
2022-10-17T07:37:43.475Z,9.13
2022-10-17T07:40:09.033Z,8.43
2022-10-17T07:42:31.293Z,8.23
2022-10-17T07:44:53.857Z,9.47
2022-10-17T07:47:16.584Z,7.93
2022-10-17T07:49:44.102Z,8.60
2022-10-17T07:52:06.313Z,9.40
2022-10-17T07:54:28.155Z,8.77
2022-10-17T07:56:50.922Z,9.03
2022-10-17T07:59:12.868Z,9.00
2022-10-17T08:01:34.676Z,8.80
2022-10-17T08:03:56.496Z,9.17
2022-10-17T08:06:18.870Z,9.40
2022-10-17T08:08:42.155Z,8.17
2022-10-17T08:11:11.216Z,9.40
2022-10-17T08:13:34.089Z,8.30
2022-10-17T08:16:01.142Z,8.70
2022-10-17T08:18:23.001Z,8.90
2022-10-17T08:20:44.951Z,7.97
2022-10-17T08:23:07.008Z,7.83
2022-10-17T08:25:28.790Z,8.20
2022-10-17T08:27:51.020Z,8.50
2022-10-17T08:30:13.158Z,7.60
2022-10-17T08:32:35.011Z,8.00
2022-10-17T08:34:56.846Z,7.63
2022-10-17T08:37:18.983Z,7.53
2022-10-17T08:39:44.659Z,7.10
2022-10-17T08:42:34.262Z,6.90
2022-10-17T08:45:29.648Z,6.50
2022-10-17T08:47:59.107Z,6.75
2022-10-17T08:50:49.420Z,6.70
2022-10-17T08:53:35.335Z,7.13
2022-10-17T08:56:02.954Z,7.03
2022-10-17T08:58:32.636Z,7.33
2022-10-17T09:01:25.349Z,7.30
2022-10-17T09:04:33.182Z,7.17
2022-10-17T09:07:19.281Z,7.80
2022-10-17T09:10:00.248Z,6.40
2022-10-17T09:12:50.128Z,6.80
2022-10-17T09:15:34.981Z,7.00
2022-10-17T09:18:31.958Z,6.70
2022-10-17T09:21:16.275Z,6.10
2022-10-17T09:24:17.005Z,6.43
2022-10-17T09:26:41.205Z,5.73
2022-10-17T09:29:11.673Z,5.57
2022-10-17T09:31:45.491Z,5.30
2022-10-17T09:34:11.428Z,5.10
2022-10-17T09:36:37.703Z,6.07
2022-10-17T09:39:22.416Z,6.47
2022-10-17T09:41:56.639Z,6.45
2022-10-17T09:44:34.032Z,6.68
2022-10-17T09:47:01.793Z,7.83
2022-10-17T09:49:34.232Z,8.53
2022-10-17T09:51:56.471Z,7.80
2022-10-17T09:54:25.904Z,8.40
2022-10-17T09:57:07.214Z,8.80
2022-10-17T09:59:36.733Z,7.53
2022-10-17T10:02:13.713Z,8.07
2022-10-17T10:04:46.907Z,8.23
2022-10-17T10:07:19.499Z,8.40
2022-10-17T10:09:48.021Z,8.70
2022-10-17T10:12:23.969Z,8.03
2022-10-17T10:14:47.358Z,8.30
2022-10-17T10:17:44.476Z,8.60
2022-10-17T10:20:31.173Z,8.17
2022-10-17T10:23:25.376Z,8.47
2022-10-17T10:25:55.589Z,8.90
2022-10-17T10:28:18.095Z,8.60
2022-10-17T10:30:40.148Z,9.20
2022-10-17T10:33:02.197Z,8.70
2022-10-17T10:35:34.322Z,9.43
2022-10-17T10:37:59.202Z,8.83
2022-10-17T10:40:29.169Z,8.10
2022-10-17T10:42:57.753Z,7.53
2022-10-17T10:45:46.919Z,7.93
2022-10-17T10:48:24.754Z,7.67
2022-10-17T10:50:53.889Z,7.93
2022-10-17T10:53:35.581Z,7.67
2022-10-17T10:56:13.806Z,8.27
2022-10-17T10:58:51.902Z,8.13
2022-10-17T11:02:25.214Z,7.90
2022-10-17T11:05:20.890Z,8.50
2022-10-17T11:10:38.273Z,7.43
2022-10-17T11:13:28.884Z,8.77
2022-10-17T11:16:25.178Z,8.60
2022-10-17T11:19:21.605Z,9.03
2022-10-17T11:22:05.459Z,9.17
2022-10-17T11:24:44.101Z,9.87
2022-10-17T11:27:08.156Z,10.80
2022-10-17T11:29:36.786Z,9.65
2022-10-17T11:32:11.200Z,10.53
2022-10-17T11:34:44.108Z,10.80
2022-10-17T11:37:20.028Z,10.77
2022-10-17T11:40:14.468Z,10.83
2022-10-17T11:43:14.890Z,11.03
2022-10-17T11:45:47.305Z,9.90
2022-10-17T11:48:33.344Z,10.57
2022-10-17T11:54:22.224Z,9.73
2022-10-17T11:57:44.688Z,10.57
2022-10-17T12:00:32.442Z,10.17
2022-10-17T12:03:34.495Z,10.57
2022-10-17T12:06:31.387Z,10.60
2022-10-17T12:09:16.322Z,9.70
2022-10-17T12:11:54.535Z,9.55
2022-10-17T12:14:34.673Z,9.63
2022-10-17T12:16:56.852Z,9.77
2022-10-17T12:19:26.494Z,9.80
2022-10-17T12:22:20.636Z,10.20
2022-10-17T12:24:52.647Z,10.10
2022-10-17T12:27:39.030Z,11.03
2022-10-17T12:30:13.211Z,10.20
2022-10-17T12:32:53.325Z,10.25
2022-10-17T12:35:23.447Z,10.60
2022-10-17T12:37:45.243Z,10.33
2022-10-17T12:40:35.161Z,10.07
2022-10-17T12:42:57.021Z,10.60
2022-10-17T12:45:52.725Z,10.60
2022-10-17T12:49:02.147Z,10.90
2022-10-17T12:51:40.506Z,11.93
2022-10-17T12:54:12.831Z,12.83
2022-10-17T12:56:57.842Z,12.73
2022-10-17T12:59:28.889Z,12.75
2022-10-17T13:02:03.707Z,14.67
2022-10-17T13:06:54.370Z,14.47
2022-10-17T13:09:24.866Z,13.45
2022-10-17T13:11:50.384Z,14.33
2022-10-17T13:14:15.540Z,12.83
2022-10-17T13:16:53.182Z,12.83
2022-10-17T13:19:23.528Z,12.93
2022-10-17T13:22:06.751Z,13.53
2022-10-17T13:24:35.072Z,13.93
2022-10-17T13:26:58.250Z,13.33
2022-10-17T13:29:21.950Z,13.57
2022-10-17T13:31:45.027Z,13.70
2022-10-17T13:34:17.633Z,14.10
2022-10-17T13:36:44.449Z,14.30
2022-10-17T13:39:17.175Z,14.73
2022-10-17T13:41:42.315Z,15.53
2022-10-17T13:44:22.458Z,15.33
2022-10-17T13:46:45.379Z,16.00
2022-10-17T13:49:32.482Z,16.33
2022-10-17T13:51:56.125Z,16.73
2022-10-17T13:54:43.266Z,16.00
2022-10-17T13:57:16.917Z,16.47
2022-10-17T13:59:42.427Z,15.90
2022-10-17T14:02:05.957Z,16.17
2022-10-17T14:04:36.113Z,15.97
2022-10-17T14:07:19.296Z,15.17
2022-10-17T14:09:41.323Z,15.65
2022-10-17T14:12:13.664Z,14.27
2022-10-17T14:14:58.065Z,14.73
2022-10-17T14:17:36.024Z,14.73
2022-10-17T14:22:59.072Z,14.83
2022-10-17T14:25:37.177Z,12.93
2022-10-17T14:28:12.663Z,11.87
2022-10-17T14:30:58.343Z,11.77
2022-10-17T14:33:30.902Z,12.93
2022-10-17T14:35:56.209Z,13.27
2022-10-17T14:38:19.674Z,12.80
2022-10-17T14:40:51.981Z,13.13
2022-10-17T14:43:25.960Z,13.23
2022-10-17T14:45:48.223Z,12.33
2022-10-17T14:48:18.091Z,13.47
2022-10-17T14:50:42.188Z,13.43
2022-10-17T14:53:21.536Z,13.07
2022-10-17T14:55:59.282Z,12.83
2022-10-17T14:58:29.511Z,12.40
2022-10-17T15:00:51.332Z,12.43
2022-10-17T15:03:13.785Z,12.23
2022-10-17T15:05:35.888Z,12.07
2022-10-17T15:07:57.658Z,12.77
2022-10-17T15:10:25.626Z,12.17
2022-10-17T15:12:56.195Z,13.10
2022-10-17T15:15:21.778Z,13.30
2022-10-17T15:20:16.828Z,12.77
2022-10-17T15:22:38.765Z,12.53
2022-10-17T15:25:00.528Z,12.73
2022-10-17T15:27:24.966Z,12.93
2022-10-17T15:29:47.659Z,12.68
2022-10-17T15:32:09.875Z,12.80
2022-10-17T15:34:31.711Z,13.33
2022-10-17T15:36:54.091Z,12.90
2022-10-17T15:39:16.106Z,13.37
2022-10-17T15:41:37.954Z,13.23
2022-10-17T15:44:00.298Z,13.07
2022-10-17T15:46:27.671Z,11.97
2022-10-17T15:48:50.411Z,13.70
2022-10-17T15:51:12.239Z,13.37
2022-10-17T15:53:34.480Z,13.07
2022-10-17T15:55:56.585Z,13.10
2022-10-17T15:58:19.795Z,12.80
2022-10-17T16:00:41.707Z,12.27
2022-10-17T16:03:03.784Z,13.47
2022-10-17T16:05:27.036Z,13.90
2022-10-17T16:07:50.188Z,14.40
2022-10-17T16:10:14.052Z,14.67
2022-10-17T16:12:41.142Z,14.60
2022-10-17T16:15:03.095Z,15.17
2022-10-17T16:17:24.942Z,16.33
2022-10-17T16:19:46.818Z,15.90
2022-10-17T16:22:32.124Z,16.53
2022-10-17T16:24:58.891Z,17.83
2022-10-17T16:27:20.616Z,16.77
2022-10-17T16:29:42.484Z,17.37
2022-10-17T16:32:04.388Z,17.40
2022-10-17T16:34:26.336Z,16.20
2022-10-17T16:36:48.653Z,17.77
2022-10-17T16:39:11.256Z,15.53
2022-10-17T16:41:37.911Z,16.43
2022-10-17T16:44:07.561Z,16.13
2022-10-17T16:46:32.147Z,17.53
2022-10-17T16:51:18.473Z,16.67
2022-10-17T16:53:43.725Z,17.63
2022-10-17T16:56:08.409Z,17.07
2022-10-17T16:58:33.368Z,16.73
2022-10-17T17:00:55.257Z,16.17
2022-10-17T17:03:17.062Z,16.73
2022-10-17T17:05:38.857Z,17.10
2022-10-17T17:08:00.980Z,15.53
2022-10-17T17:10:22.796Z,15.83
2022-10-17T17:12:44.751Z,15.97
2022-10-17T17:15:06.925Z,15.83
2022-10-17T17:17:30.803Z,16.47
2022-10-17T17:20:06.963Z,15.77
2022-10-17T17:22:28.728Z,15.57
2022-10-17T17:24:50.752Z,15.27
2022-10-17T17:27:13.579Z,15.03
2022-10-17T17:29:35.570Z,14.70
2022-10-17T17:31:57.493Z,15.47
2022-10-17T17:34:19.390Z,15.97
2022-10-17T17:36:42.919Z,16.43
2022-10-17T17:39:10.621Z,17.20
2022-10-17T17:41:33.605Z,15.70
2022-10-17T17:43:56.675Z,15.27
2022-10-17T17:46:21.234Z,16.83
2022-10-17T17:51:09.303Z,15.40
2022-10-17T17:53:31.494Z,15.07
2022-10-17T17:56:07.837Z,15.63
2022-10-17T17:58:29.626Z,15.47
2022-10-17T18:00:51.391Z,15.37
2022-10-17T18:03:13.894Z,14.77
2022-10-17T18:05:35.745Z,15.63
2022-10-17T18:07:57.840Z,15.97
2022-10-17T18:10:20.205Z,17.20
2022-10-17T18:12:42.178Z,17.13
2022-10-17T18:15:05.383Z,15.83
2022-10-17T18:17:28.445Z,16.93
2022-10-17T18:19:50.630Z,16.63
2022-10-17T18:22:12.545Z,16.07
2022-10-17T18:24:34.356Z,14.63
2022-10-17T18:26:59.772Z,16.37
2022-10-17T18:29:21.897Z,16.40
2022-10-17T18:31:43.883Z,16.00
2022-10-17T18:34:06.313Z,15.23
2022-10-17T18:36:30.165Z,16.23
2022-10-17T18:38:53.328Z,15.18
2022-10-17T18:41:19.302Z,15.73
2022-10-17T18:43:45.403Z,16.10
2022-10-17T18:46:29.370Z,15.50
2022-10-17T18:48:51.768Z,15.60
2022-10-17T18:51:16.661Z,16.50
2022-10-17T18:53:48.947Z,15.23
2022-10-17T18:56:12.068Z,15.20
2022-10-17T18:58:33.985Z,15.90
2022-10-17T19:01:03.718Z,14.87
2022-10-17T19:03:25.483Z,15.40
2022-10-17T19:05:47.662Z,16.87
2022-10-17T19:08:09.463Z,16.27
2022-10-17T19:10:35.327Z,16.73
2022-10-17T19:12:57.074Z,17.67
2022-10-17T19:15:20.310Z,16.37
2022-10-17T19:17:44.252Z,16.37
2022-10-17T19:20:07.105Z,16.60
2022-10-17T19:22:30.442Z,18.03
2022-10-17T19:24:52.209Z,17.43
2022-10-17T19:27:14.116Z,17.00
2022-10-17T19:29:35.915Z,17.47
2022-10-17T19:31:57.972Z,16.97
2022-10-17T19:34:20.232Z,17.70
2022-10-17T19:36:42.417Z,16.77
2022-10-17T19:39:09.254Z,17.77
2022-10-17T19:41:32.038Z,17.17
2022-10-17T19:43:54.116Z,17.53
2022-10-17T19:46:27.408Z,17.17
2022-10-17T19:48:50.807Z,17.10
2022-10-17T19:51:15.717Z,17.33
2022-10-17T19:53:37.909Z,17.13
2022-10-17T19:56:00.655Z,16.97
2022-10-17T19:58:23.232Z,16.57
2022-10-17T20:00:51.945Z,16.97
2022-10-17T20:03:13.792Z,16.70
2022-10-17T20:05:38.349Z,17.23
2022-10-17T20:10:22.426Z,15.90
2022-10-17T20:12:44.443Z,15.73
2022-10-17T20:15:06.876Z,17.00
2022-10-17T20:17:28.647Z,14.67
2022-10-17T20:19:50.565Z,15.53
2022-10-17T20:22:12.329Z,14.47
2022-10-17T20:24:34.219Z,15.50
2022-10-17T20:26:56.047Z,14.63
2022-10-17T20:29:21.385Z,15.37
2022-10-17T20:31:45.951Z,14.70
2022-10-17T20:34:09.829Z,14.57
2022-10-17T20:36:32.337Z,16.00
2022-10-17T20:38:59.321Z,15.17
2022-10-17T20:41:22.007Z,13.97
2022-10-17T20:43:43.735Z,13.67
2022-10-17T20:46:22.973Z,13.87
2022-10-17T20:48:54.189Z,12.87
2022-10-17T20:51:16.561Z,13.83
2022-10-17T20:53:38.415Z,13.37
2022-10-17T20:56:11.602Z,13.40
2022-10-17T20:58:33.867Z,13.07
2022-10-17T21:00:55.660Z,13.23
2022-10-17T21:03:17.403Z,13.20
2022-10-17T21:05:39.989Z,12.87
2022-10-17T21:08:02.652Z,13.67
2022-10-17T21:10:34.957Z,12.67
2022-10-17T21:12:57.542Z,13.47
2022-10-17T21:15:19.459Z,13.07
2022-10-17T21:17:41.411Z,13.03
2022-10-17T21:20:03.632Z,12.63
2022-10-17T21:22:25.749Z,13.07
2022-10-17T21:24:47.543Z,11.33
2022-10-17T21:27:16.956Z,12.37
2022-10-17T21:29:38.758Z,10.20
2022-10-17T21:32:00.565Z,13.20
2022-10-17T21:34:24.944Z,12.83
2022-10-17T21:36:48.279Z,11.48
2022-10-17T21:39:12.405Z,13.03
2022-10-17T21:41:34.270Z,12.27
2022-10-17T21:44:03.948Z,12.70
2022-10-17T21:46:27.108Z,11.63
2022-10-17T21:48:51.682Z,11.50
2022-10-17T21:53:38.933Z,11.65
2022-10-17T21:56:03.702Z,11.37
2022-10-17T21:58:25.490Z,10.70
2022-10-17T22:00:47.613Z,10.70
2022-10-17T22:03:09.764Z,10.23
2022-10-17T22:05:31.557Z,10.57
2022-10-17T22:07:53.327Z,9.87
2022-10-17T22:10:15.168Z,9.80
2022-10-17T22:12:37.008Z,9.97
2022-10-17T22:14:58.763Z,10.33
2022-10-17T22:17:20.507Z,10.20
2022-10-17T22:19:42.327Z,10.27
2022-10-17T22:22:04.155Z,10.63
2022-10-17T22:24:25.937Z,10.50
2022-10-17T22:26:48.474Z,10.30
2022-10-17T22:29:11.387Z,13.87
2022-10-17T22:31:34.310Z,12.20
2022-10-17T22:33:56.510Z,11.33
2022-10-17T22:36:18.656Z,11.60
2022-10-17T22:38:40.655Z,12.07
2022-10-17T22:41:03.668Z,11.73
2022-10-17T22:43:25.656Z,11.63
2022-10-17T22:46:00.135Z,12.20
2022-10-17T22:48:23.667Z,12.00
2022-10-17T22:50:46.714Z,12.00
2022-10-17T22:53:08.540Z,11.43
2022-10-17T22:55:30.321Z,12.33
2022-10-17T22:57:52.071Z,12.00
2022-10-17T23:00:14.170Z,12.07
2022-10-17T23:02:36.554Z,11.00
2022-10-17T23:04:59.701Z,10.83
2022-10-17T23:07:21.621Z,11.00
2022-10-17T23:09:43.769Z,11.37
2022-10-17T23:12:05.669Z,11.80
2022-10-17T23:14:27.644Z,11.20
2022-10-17T23:16:49.576Z,10.40
2022-10-17T23:19:11.361Z,10.40
2022-10-17T23:21:33.153Z,10.67
2022-10-17T23:23:55.059Z,10.93
2022-10-17T23:26:16.877Z,10.23
2022-10-17T23:28:40.041Z,10.40
2022-10-17T23:31:17.388Z,9.67
2022-10-17T23:33:41.342Z,10.70
2022-10-17T23:36:08.434Z,10.73
2022-10-17T23:38:30.171Z,10.60
2022-10-17T23:40:51.944Z,10.77
2022-10-17T23:43:13.689Z,11.20
2022-10-17T23:45:37.223Z,10.17
2022-10-17T23:47:59.152Z,9.50
2022-10-17T23:50:21.085Z,8.87
2022-10-17T23:52:43.003Z,9.87
2022-10-17T23:55:05.567Z,9.73
2022-10-17T23:57:27.349Z,10.00
2022-10-17T23:59:49.223Z,10.10
